Aviation Digital Data Service (ADDS)

Output produced by METARs form (1238 UTC 25 September 2018)
found at http://www.aviationweather.gov/metar/data/
 
OJAQ 251200Z 35014KT CAVOK 36/16 Q1008 NOSIG
TAF OJAQ 251100Z 2512/2618 36016KT 7000 NSC
       
OJAM 251200Z 28011KT 5000 HZ NSC 31/09 Q1015 NOSIG
TAF OJAM 251100Z 2512/2618 27008KT 5000 HZ NSC 
     PROB40 2602/2606 VRB01KT 4000
       
OJAI 251200Z 28012KT 7000 NSC 32/13 Q1015 NOSIG
TAF OJAI 251100Z 2512/2618 27010KT 5000 HZ NSC 
     PROB40 2602/2606 VRB01KT 4000